sensor_id;sensor_type;location;lat;lon;timestamp;pressure;altitude;pressure_sealevel;temperature;humidity
69351;BME280;57106;51.446;-2.606;2023-02-01T01:22:37;102582.05;;;7.81;65.07
69351;BME280;57106;51.446;-2.606;2023-02-01T01:52:59;102599.20;;;8.44;64.66
69351;BME280;57106;51.446;-2.606;2023-02-01T03:38:17;102576.60;;;7.90;67.47
69351;BME280;57106;51.446;-2.606;2023-02-01T03:45:34;102567.57;;;8.23;66.72
69351;BME280;57106;51.446;-2.606;2023-02-01T03:47:56;102561.96;;;8.29;66.13
69351;BME280;57106;51.446;-2.606;2023-02-01T03:50:20;102561.07;;;8.43;65.87
69351;BME280;57106;51.446;-2.606;2023-02-01T03:52:50;102561.26;;;8.51;65.42
69351;BME280;57106;51.446;-2.606;2023-02-01T03:55:09;102546.23;;;8.65;65.02
69351;BME280;57106;51.446;-2.606;2023-02-01T03:57:37;102545.72;;;8.58;64.84
69351;BME280;57106;51.446;-2.606;2023-02-01T04:00:07;102544.14;;;8.69;64.63
69351;BME280;57106;51.446;-2.606;2023-02-01T04:02:26;102549.51;;;8.62;64.69
69351;BME280;57106;51.446;-2.606;2023-02-01T04:04:52;102549.29;;;8.49;65.10
69351;BME280;57106;51.446;-2.606;2023-02-01T04:07:17;102546.46;;;8.50;65.16
69351;BME280;57106;51.446;-2.606;2023-02-01T04:09:43;102542.04;;;8.51;65.25
69351;BME280;57106;51.446;-2.606;2023-02-01T04:12:08;102538.04;;;8.33;65.68
69351;BME280;57106;51.446;-2.606;2023-02-01T04:14:34;102543.44;;;8.38;65.74
69351;BME280;57106;51.446;-2.606;2023-02-01T04:17:07;102537.24;;;8.16;66.47
69351;BME280;57106;51.446;-2.606;2023-02-01T04:19:33;102537.56;;;8.11;66.75
69351;BME280;57106;51.446;-2.606;2023-02-01T04:21:53;102543.73;;;8.10;66.78
69351;BME280;57106;51.446;-2.606;2023-02-01T04:24:17;102542.63;;;7.97;67.34
69351;BME280;57106;51.446;-2.606;2023-02-01T04:26:44;102548.75;;;7.91;67.55
69351;BME280;57106;51.446;-2.606;2023-02-01T04:29:09;102540.00;;;7.77;68.12
69351;BME280;57106;51.446;-2.606;2023-02-01T04:31:34;102528.80;;;7.77;68.31
69351;BME280;57106;51.446;-2.606;2023-02-01T04:34:02;102532.46;;;7.77;68.37
69351;BME280;57106;51.446;-2.606;2023-02-01T04:36:25;102532.78;;;7.78;68.38
69351;BME280;57106;51.446;-2.606;2023-02-01T04:38:52;102528.81;;;7.88;68.23
69351;BME280;57106;51.446;-2.606;2023-02-01T04:41:17;102521.05;;;7.77;68.31
69351;BME280;57106;51.446;-2.606;2023-02-01T04:43:41;102515.41;;;7.70;68.58
69351;BME280;57106;51.446;-2.606;2023-02-01T04:46:09;102518.03;;;7.74;68.61
69351;BME280;57106;51.446;-2.606;2023-02-01T04:48:34;102511.01;;;7.68;68.90
69351;BME280;57106;51.446;-2.606;2023-02-01T04:50:58;102512.87;;;7.73;68.67
69351;BME280;57106;51.446;-2.606;2023-02-01T04:53:23;102519.55;;;7.73;68.60
69351;BME280;57106;51.446;-2.606;2023-02-01T04:55:50;102518.28;;;7.78;68.70
69351;BME280;57106;51.446;-2.606;2023-02-01T04:58:14;102523.48;;;7.92;68.29
69351;BME280;57106;51.446;-2.606;2023-02-01T05:00:39;102530.63;;;7.87;68.38
69351;BME280;57106;51.446;-2.606;2023-02-01T05:03:10;102531.37;;;7.86;68.51
69351;BME280;57106;51.446;-2.606;2023-02-01T05:05:32;102534.90;;;7.96;68.19
69351;BME280;57106;51.446;-2.606;2023-02-01T05:08:07;102534.28;;;8.00;67.70
69351;BME280;57106;51.446;-2.606;2023-02-01T05:10:23;102534.30;;;8.07;67.57
69351;BME280;57106;51.446;-2.606;2023-02-01T05:12:47;102541.33;;;7.99;67.61
69351;BME280;57106;51.446;-2.606;2023-02-01T05:15:12;102543.10;;;8.07;67.51
69351;BME280;57106;51.446;-2.606;2023-02-01T05:17:38;102548.00;;;8.26;66.86
69351;BME280;57106;51.446;-2.606;2023-02-01T05:20:05;102545.25;;;8.12;66.92
69351;BME280;57106;51.446;-2.606;2023-02-01T05:22:34;102548.26;;;8.00;67.24
69351;BME280;57106;51.446;-2.606;2023-02-01T05:24:55;102543.66;;;8.04;67.08
69351;BME280;57106;51.446;-2.606;2023-02-01T05:27:23;102536.92;;;8.19;66.65
69351;BME280;57106;51.446;-2.606;2023-02-01T05:29:47;102547.70;;;7.94;67.13
69351;BME280;57106;51.446;-2.606;2023-02-01T05:32:12;102533.05;;;7.99;67.13
69351;BME280;57106;51.446;-2.606;2023-02-01T05:34:38;102527.14;;;7.94;67.12
69351;BME280;57106;51.446;-2.606;2023-02-01T05:37:10;102517.26;;;7.95;67.02
69351;BME280;57106;51.446;-2.606;2023-02-01T05:41:59;102502.00;;;7.85;67.32
69351;BME280;57106;51.446;-2.606;2023-02-01T05:44:23;102501.23;;;7.73;67.67
69351;BME280;57106;51.446;-2.606;2023-02-01T05:46:47;102500.06;;;7.88;67.32
69351;BME280;57106;51.446;-2.606;2023-02-01T05:49:11;102494.75;;;7.80;67.42
69351;BME280;57106;51.446;-2.606;2023-02-01T05:54:03;102489.27;;;7.80;67.46
69351;BME280;57106;51.446;-2.606;2023-02-01T05:56:28;102495.92;;;7.89;67.19
69351;BME280;57106;51.446;-2.606;2023-02-01T05:58:53;102498.46;;;7.85;67.27
69351;BME280;57106;51.446;-2.606;2023-02-01T06:01:22;102510.20;;;7.91;67.17
69351;BME280;57106;51.446;-2.606;2023-02-01T06:03:47;102507.36;;;7.92;66.92
69351;BME280;57106;51.446;-2.606;2023-02-01T06:06:10;102497.61;;;7.95;66.82
69351;BME280;57106;51.446;-2.606;2023-02-01T06:08:37;102490.81;;;7.90;66.62
69351;BME280;57106;51.446;-2.606;2023-02-01T06:11:04;102489.82;;;7.92;66.53
69351;BME280;57106;51.446;-2.606;2023-02-01T06:13:27;102490.26;;;7.82;66.98
69351;BME280;57106;51.446;-2.606;2023-02-01T06:16:02;102492.09;;;8.03;66.27
69351;BME280;57106;51.446;-2.606;2023-02-01T06:18:19;102492.74;;;8.15;65.88
69351;BME280;57106;51.446;-2.606;2023-02-01T06:22:37;102495.26;;;8.05;65.81
69351;BME280;57106;51.446;-2.606;2023-02-01T06:52:06;102523.54;;;8.25;65.12
69351;BME280;57106;51.446;-2.606;2023-02-01T07:45:13;102487.56;;;8.04;66.66
69351;BME280;57106;51.446;-2.606;2023-02-01T07:50:02;102486.94;;;8.05;67.03
69351;BME280;57106;51.446;-2.606;2023-02-01T08:04:31;102522.32;;;8.28;66.55
69351;BME280;57106;51.446;-2.606;2023-02-01T08:12:45;102540.05;;;8.43;66.36
69351;BME280;57106;51.446;-2.606;2023-02-01T08:59:15;102544.53;;;8.96;65.54
69351;BME280;57106;51.446;-2.606;2023-02-01T09:03:54;102540.35;;;9.01;65.22
69351;BME280;57106;51.446;-2.606;2023-02-01T09:06:17;102541.79;;;8.97;65.65
69351;BME280;57106;51.446;-2.606;2023-02-01T09:08:50;102543.02;;;8.98;65.96
69351;BME280;57106;51.446;-2.606;2023-02-01T09:11:06;102549.82;;;8.91;66.14
69351;BME280;57106;51.446;-2.606;2023-02-01T09:13:30;102547.41;;;8.76;66.70
69351;BME280;57106;51.446;-2.606;2023-02-01T09:16:02;102553.38;;;8.97;66.21
69351;BME280;57106;51.446;-2.606;2023-02-01T09:18:20;102555.12;;;9.03;65.73
69351;BME280;57106;51.446;-2.606;2023-02-01T09:20:48;102557.52;;;9.05;65.94
69351;BME280;57106;51.446;-2.606;2023-02-01T09:23:13;102562.38;;;9.12;65.85
69351;BME280;57106;51.446;-2.606;2023-02-01T09:25:44;102564.61;;;9.09;65.63
69351;BME280;57106;51.446;-2.606;2023-02-01T09:28:14;102565.30;;;9.17;65.69
69351;BME280;57106;51.446;-2.606;2023-02-01T09:33:05;102574.52;;;9.31;65.19
69351;BME280;57106;51.446;-2.606;2023-02-01T09:35:30;102567.50;;;9.54;64.58
69351;BME280;57106;51.446;-2.606;2023-02-01T09:37:50;102564.93;;;9.66;64.40
69351;BME280;57106;51.446;-2.606;2023-02-01T09:40:25;102566.20;;;9.69;64.54
69351;BME280;57106;51.446;-2.606;2023-02-01T09:42:52;102557.68;;;9.60;64.63
69351;BME280;57106;51.446;-2.606;2023-02-01T09:47:49;102552.82;;;9.39;64.99
69351;BME280;57106;51.446;-2.606;2023-02-01T09:50:02;102540.56;;;9.57;64.50
69351;BME280;57106;51.446;-2.606;2023-02-01T09:52:36;102538.00;;;9.56;64.68
69351;BME280;57106;51.446;-2.606;2023-02-01T09:54:54;102539.73;;;9.56;64.56
69351;BME280;57106;51.446;-2.606;2023-02-01T09:57:31;102540.19;;;9.37;65.30
69351;BME280;57106;51.446;-2.606;2023-02-01T10:04:34;102534.56;;;9.19;65.75
69351;BME280;57106;51.446;-2.606;2023-02-01T10:09:41;102542.07;;;9.39;65.53
69351;BME280;57106;51.446;-2.606;2023-02-01T10:12:04;102547.76;;;9.39;65.49
69351;BME280;57106;51.446;-2.606;2023-02-01T10:14:20;102543.60;;;9.53;65.05
69351;BME280;57106;51.446;-2.606;2023-02-01T10:16:42;102536.68;;;9.53;65.21
69351;BME280;57106;51.446;-2.606;2023-02-01T10:19:20;102541.66;;;9.48;65.15
69351;BME280;57106;51.446;-2.606;2023-02-01T10:21:36;102552.54;;;9.36;65.58
69351;BME280;57106;51.446;-2.606;2023-02-01T10:24:03;102563.16;;;9.46;65.67
69351;BME280;57106;51.446;-2.606;2023-02-01T10:26:19;102554.65;;;9.53;65.32
69351;BME280;57106;51.446;-2.606;2023-02-01T10:28:50;102556.22;;;9.55;65.30
69351;BME280;57106;51.446;-2.606;2023-02-01T10:31:09;102562.03;;;9.50;65.47
69351;BME280;57106;51.446;-2.606;2023-02-01T10:33:35;102559.67;;;9.59;65.11
69351;BME280;57106;51.446;-2.606;2023-02-01T10:36:10;102568.62;;;9.38;65.73
69351;BME280;57106;51.446;-2.606;2023-02-01T10:38:27;102573.55;;;9.51;65.64
69351;BME280;57106;51.446;-2.606;2023-02-01T10:40:49;102581.50;;;9.53;65.70
69351;BME280;57106;51.446;-2.606;2023-02-01T10:43:15;102571.28;;;9.72;65.27
69351;BME280;57106;51.446;-2.606;2023-02-01T10:45:42;102568.20;;;9.80;64.71
69351;BME280;57106;51.446;-2.606;2023-02-01T10:48:09;102568.08;;;9.86;64.68
69351;BME280;57106;51.446;-2.606;2023-02-01T10:50:36;102567.52;;;9.79;64.36
69351;BME280;57106;51.446;-2.606;2023-02-01T10:53:00;102568.94;;;9.92;64.36
69351;BME280;57106;51.446;-2.606;2023-02-01T10:55:33;102579.51;;;10.05;64.24
69351;BME280;57106;51.446;-2.606;2023-02-01T10:57:56;102579.83;;;10.08;64.00
69351;BME280;57106;51.446;-2.606;2023-02-01T11:00:20;102577.54;;;10.08;63.73
69351;BME280;57106;51.446;-2.606;2023-02-01T11:02:39;102579.68;;;10.03;64.15
69351;BME280;57106;51.446;-2.606;2023-02-01T11:05:07;102577.69;;;10.17;63.14
69351;BME280;57106;51.446;-2.606;2023-02-01T11:07:29;102583.43;;;10.02;63.53
69351;BME280;57106;51.446;-2.606;2023-02-01T11:09:56;102589.52;;;10.05;63.73
69351;BME280;57106;51.446;-2.606;2023-02-01T11:12:26;102592.55;;;10.26;63.39
69351;BME280;57106;51.446;-2.606;2023-02-01T11:14:47;102594.58;;;10.29;62.93
69351;BME280;57106;51.446;-2.606;2023-02-01T11:17:24;102593.91;;;10.41;62.60
69351;BME280;57106;51.446;-2.606;2023-02-01T11:19:37;102593.63;;;10.67;61.83
69351;BME280;57106;51.446;-2.606;2023-02-01T11:22:03;102601.06;;;10.74;62.08
69351;BME280;57106;51.446;-2.606;2023-02-01T11:24:31;102597.18;;;10.62;61.59
69351;BME280;57106;51.446;-2.606;2023-02-01T11:29:19;102601.35;;;10.75;61.22
69351;BME280;57106;51.446;-2.606;2023-02-01T11:31:45;102601.96;;;10.95;60.77
69351;BME280;57106;51.446;-2.606;2023-02-01T11:34:15;102601.31;;;11.11;60.48
69351;BME280;57106;51.446;-2.606;2023-02-01T11:36:36;102593.27;;;11.08;60.49
69351;BME280;57106;51.446;-2.606;2023-02-01T11:39:19;102596.76;;;11.10;60.38
69351;BME280;57106;51.446;-2.606;2023-02-01T11:41:27;102587.37;;;10.89;60.81
69351;BME280;57106;51.446;-2.606;2023-02-01T11:43:55;102586.91;;;10.71;61.58
69351;BME280;57106;51.446;-2.606;2023-02-01T11:46:19;102579.39;;;10.74;61.40
69351;BME280;57106;51.446;-2.606;2023-02-01T11:48:43;102582.00;;;10.72;61.68
69351;BME280;57106;51.446;-2.606;2023-02-01T11:51:20;102579.93;;;10.46;62.33
69351;BME280;57106;51.446;-2.606;2023-02-01T11:53:42;102585.04;;;10.50;62.39
69351;BME280;57106;51.446;-2.606;2023-02-01T11:56:08;102574.14;;;10.21;63.39
69351;BME280;57106;51.446;-2.606;2023-02-01T11:58:38;102570.66;;;10.43;62.57
69351;BME280;57106;51.446;-2.606;2023-02-01T12:01:01;102574.98;;;10.51;62.63
69351;BME280;57106;51.446;-2.606;2023-02-01T12:05:47;102567.60;;;10.73;61.82
69351;BME280;57106;51.446;-2.606;2023-02-01T12:08:19;102563.74;;;10.94;61.24
69351;BME280;57106;51.446;-2.606;2023-02-01T12:10:40;102562.24;;;10.95;60.91
69351;BME280;57106;51.446;-2.606;2023-02-01T12:13:06;102566.72;;;10.76;61.31
69351;BME280;57106;51.446;-2.606;2023-02-01T12:15:36;102560.42;;;10.90;60.97
69351;BME280;57106;51.446;-2.606;2023-02-01T12:17:59;102553.20;;;11.23;59.68
69351;BME280;57106;51.446;-2.606;2023-02-01T12:20:24;102557.24;;;11.02;60.10
69351;BME280;57106;51.446;-2.606;2023-02-01T12:22:48;102558.37;;;11.05;60.07
69351;BME280;57106;51.446;-2.606;2023-02-01T12:56:40;102553.15;;;10.69;63.18
69351;BME280;57106;51.446;-2.606;2023-02-01T13:03:58;102557.32;;;10.83;62.56
69351;BME280;57106;51.446;-2.606;2023-02-01T13:06:24;102552.85;;;10.86;62.20
69351;BME280;57106;51.446;-2.606;2023-02-01T13:11:24;102550.26;;;11.07;61.47
69351;BME280;57106;51.446;-2.606;2023-02-01T13:13:48;102555.42;;;10.92;61.94
69351;BME280;57106;51.446;-2.606;2023-02-01T13:16:12;102548.55;;;10.73;62.39
69351;BME280;57106;51.446;-2.606;2023-02-01T13:18:34;102542.73;;;11.00;62.08
69351;BME280;57106;51.446;-2.606;2023-02-01T13:21:01;102553.46;;;10.94;62.60
69351;BME280;57106;51.446;-2.606;2023-02-01T13:23:25;102550.82;;;10.93;62.71
69351;BME280;57106;51.446;-2.606;2023-02-01T13:25:48;102548.27;;;11.13;62.54
69351;BME280;57106;51.446;-2.606;2023-02-01T13:30:50;102539.62;;;11.34;63.02
69351;BME280;57106;51.446;-2.606;2023-02-01T13:38:06;102538.39;;;11.12;63.66
69351;BME280;57106;51.446;-2.606;2023-02-01T13:40:35;102537.00;;;10.96;64.01
69351;BME280;57106;51.446;-2.606;2023-02-01T13:42:52;102535.55;;;11.14;63.87
69351;BME280;57106;51.446;-2.606;2023-02-01T13:50:03;102525.86;;;11.19;62.94
69351;BME280;57106;51.446;-2.606;2023-02-01T13:52:38;102525.96;;;10.96;63.44
69351;BME280;57106;51.446;-2.606;2023-02-01T13:55:01;102522.81;;;10.86;63.66
69351;BME280;57106;51.446;-2.606;2023-02-01T13:59:51;102522.46;;;10.65;65.02
69351;BME280;57106;51.446;-2.606;2023-02-01T14:04:46;102530.82;;;10.62;65.78
69351;BME280;57106;51.446;-2.606;2023-02-01T14:07:00;102530.28;;;10.79;65.42
69351;BME280;57106;51.446;-2.606;2023-02-01T14:11:52;102521.24;;;10.64;66.15
69351;BME280;57106;51.446;-2.606;2023-02-01T14:16:43;102518.42;;;10.59;66.59
69351;BME280;57106;51.446;-2.606;2023-02-01T14:21:34;102527.50;;;10.64;67.99
69351;BME280;57106;51.446;-2.606;2023-02-01T14:24:00;102524.04;;;10.64;68.17
69351;BME280;57106;51.446;-2.606;2023-02-01T14:26:27;102525.11;;;10.55;68.63
69351;BME280;57106;51.446;-2.606;2023-02-01T14:28:53;102526.68;;;10.54;68.72
69351;BME280;57106;51.446;-2.606;2023-02-01T14:31:31;102529.77;;;10.50;68.85
69351;BME280;57106;51.446;-2.606;2023-02-01T14:33:43;102531.66;;;10.70;68.38
69351;BME280;57106;51.446;-2.606;2023-02-01T14:36:10;102534.11;;;10.84;68.16
69351;BME280;57106;51.446;-2.606;2023-02-01T14:38:34;102533.16;;;11.09;67.43
69351;BME280;57106;51.446;-2.606;2023-02-01T14:41:13;102528.98;;;10.89;67.67
69351;BME280;57106;51.446;-2.606;2023-02-01T14:45:50;102533.46;;;10.88;67.52
69351;BME280;57106;51.446;-2.606;2023-02-01T14:50:42;102535.13;;;10.98;67.08
69351;BME280;57106;51.446;-2.606;2023-02-01T14:53:18;102535.68;;;10.76;67.12
69351;BME280;57106;51.446;-2.606;2023-02-01T14:55:37;102533.26;;;10.71;67.59
69351;BME280;57106;51.446;-2.606;2023-02-01T14:58:00;102536.23;;;10.72;67.48
69351;BME280;57106;51.446;-2.606;2023-02-01T15:00:27;102539.68;;;10.91;66.75
69351;BME280;57106;51.446;-2.606;2023-02-01T15:02:49;102536.79;;;10.98;66.31
69351;BME280;57106;51.446;-2.606;2023-02-01T15:05:25;102531.91;;;11.06;66.27
69351;BME280;57106;51.446;-2.606;2023-02-01T15:07:39;102544.81;;;11.01;66.47
69351;BME280;57106;51.446;-2.606;2023-02-01T15:10:05;102556.34;;;10.77;67.52
69351;BME280;57106;51.446;-2.606;2023-02-01T15:12:30;102549.33;;;10.68;67.65
69351;BME280;57106;51.446;-2.606;2023-02-01T15:15:12;102547.75;;;10.66;68.11
69351;BME280;57106;51.446;-2.606;2023-02-01T15:17:23;102554.86;;;10.64;67.96
69351;BME280;57106;51.446;-2.606;2023-02-01T15:19:54;102551.79;;;10.55;68.02
69351;BME280;57106;51.446;-2.606;2023-02-01T15:22:18;102554.73;;;10.66;67.53
69351;BME280;57106;51.446;-2.606;2023-02-01T15:24:39;102550.86;;;10.39;68.11
69351;BME280;57106;51.446;-2.606;2023-02-01T15:27:05;102553.48;;;10.46;67.90
69351;BME280;57106;51.446;-2.606;2023-02-01T15:29:30;102558.07;;;10.56;67.58
69351;BME280;57106;51.446;-2.606;2023-02-01T15:31:55;102561.93;;;10.46;67.67
69351;BME280;57106;51.446;-2.606;2023-02-01T15:34:21;102566.01;;;10.32;67.64
69351;BME280;57106;51.446;-2.606;2023-02-01T15:36:47;102567.58;;;10.31;67.43
69351;BME280;57106;51.446;-2.606;2023-02-01T15:39:16;102565.17;;;10.23;67.56
69351;BME280;57106;51.446;-2.606;2023-02-01T15:41:37;102571.21;;;10.24;67.50
69351;BME280;57106;51.446;-2.606;2023-02-01T15:44:17;102573.29;;;10.28;67.42
69351;BME280;57106;51.446;-2.606;2023-02-01T15:46:36;102574.31;;;10.32;67.21
69351;BME280;57106;51.446;-2.606;2023-02-01T15:48:55;102577.20;;;10.47;67.03
69351;BME280;57106;51.446;-2.606;2023-02-01T15:51:22;102588.59;;;10.27;67.60
69351;BME280;57106;51.446;-2.606;2023-02-01T15:53:51;102586.63;;;10.37;67.67
69351;BME280;57106;51.446;-2.606;2023-02-01T15:56:11;102585.43;;;10.30;67.74
69351;BME280;57106;51.446;-2.606;2023-02-01T15:58:37;102589.76;;;10.15;68.14
69351;BME280;57106;51.446;-2.606;2023-02-01T16:01:04;102588.01;;;10.18;67.99
69351;BME280;57106;51.446;-2.606;2023-02-01T16:03:34;102588.19;;;10.22;68.32
69351;BME280;57106;51.446;-2.606;2023-02-01T16:05:59;102590.53;;;10.26;67.73
69351;BME280;57106;51.446;-2.606;2023-02-01T16:08:22;102599.94;;;10.28;67.90
69351;BME280;57106;51.446;-2.606;2023-02-01T16:10:46;102596.46;;;10.25;67.76
69351;BME280;57106;51.446;-2.606;2023-02-01T16:13:11;102599.22;;;10.28;67.79
69351;BME280;57106;51.446;-2.606;2023-02-01T16:15:35;102595.93;;;10.02;68.57
69351;BME280;57106;51.446;-2.606;2023-02-01T16:18:01;102600.88;;;10.20;68.58
69351;BME280;57106;51.446;-2.606;2023-02-01T16:20:26;102599.53;;;9.99;68.83
69351;BME280;57106;51.446;-2.606;2023-02-01T16:22:52;102598.00;;;10.14;68.55
69351;BME280;57106;51.446;-2.606;2023-02-01T16:25:17;102606.47;;;10.09;68.82
69351;BME280;57106;51.446;-2.606;2023-02-01T16:27:44;102622.87;;;9.95;69.19
69351;BME280;57106;51.446;-2.606;2023-02-01T16:30:10;102623.65;;;9.95;69.34
69351;BME280;57106;51.446;-2.606;2023-02-01T16:32:33;102620.53;;;9.96;69.49
69351;BME280;57106;51.446;-2.606;2023-02-01T16:34:59;102619.12;;;10.05;69.40
69351;BME280;57106;51.446;-2.606;2023-02-01T16:37:27;102614.07;;;10.06;69.33
69351;BME280;57106;51.446;-2.606;2023-02-01T16:39:51;102618.17;;;10.06;69.36
69351;BME280;57106;51.446;-2.606;2023-02-01T16:42:17;102620.96;;;10.07;69.39
69351;BME280;57106;51.446;-2.606;2023-02-01T16:44:42;102626.46;;;9.97;69.62
69351;BME280;57106;51.446;-2.606;2023-02-01T16:47:13;102630.09;;;9.78;69.88
69351;BME280;57106;51.446;-2.606;2023-02-01T16:49:33;102629.94;;;9.64;70.40
69351;BME280;57106;51.446;-2.606;2023-02-01T16:51:58;102632.71;;;9.69;70.30
69351;BME280;57106;51.446;-2.606;2023-02-01T16:54:23;102630.85;;;9.71;69.98
69351;BME280;57106;51.446;-2.606;2023-02-01T16:56:51;102631.53;;;9.57;70.39
69351;BME280;57106;51.446;-2.606;2023-02-01T16:59:15;102633.47;;;9.54;70.41
69351;BME280;57106;51.446;-2.606;2023-02-01T17:01:41;102640.40;;;9.67;70.63
69351;BME280;57106;51.446;-2.606;2023-02-01T17:04:06;102648.37;;;9.70;70.70
69351;BME280;57106;51.446;-2.606;2023-02-01T17:06:31;102646.88;;;9.56;71.18
69351;BME280;57106;51.446;-2.606;2023-02-01T17:08:58;102655.21;;;9.54;71.44
69351;BME280;57106;51.446;-2.606;2023-02-01T17:11:22;102661.97;;;9.59;71.22
69351;BME280;57106;51.446;-2.606;2023-02-01T17:13:47;102667.34;;;9.71;71.42
69351;BME280;57106;51.446;-2.606;2023-02-01T17:16:21;102668.31;;;9.64;71.40
69351;BME280;57106;51.446;-2.606;2023-02-01T17:18:38;102665.13;;;9.64;71.45
69351;BME280;57106;51.446;-2.606;2023-02-01T17:21:05;102659.60;;;9.85;70.72
69351;BME280;57106;51.446;-2.606;2023-02-01T17:23:30;102654.83;;;9.88;70.66
69351;BME280;57106;51.446;-2.606;2023-02-01T17:25:57;102653.46;;;9.80;70.91
69351;BME280;57106;51.446;-2.606;2023-02-01T17:28:21;102650.77;;;9.62;71.89
69351;BME280;57106;51.446;-2.606;2023-02-01T17:30:46;102642.81;;;9.65;71.94
69351;BME280;57106;51.446;-2.606;2023-02-01T17:33:19;102647.40;;;9.64;72.24
69351;BME280;57106;51.446;-2.606;2023-02-01T17:35:36;102648.98;;;9.88;71.53
69351;BME280;57106;51.446;-2.606;2023-02-01T17:38:05;102643.55;;;9.92;71.24
69351;BME280;57106;51.446;-2.606;2023-02-01T17:40:27;102637.84;;;9.71;71.98
69351;BME280;57106;51.446;-2.606;2023-02-01T17:42:53;102642.94;;;9.69;72.11
69351;BME280;57106;51.446;-2.606;2023-02-01T17:45:24;102647.56;;;9.97;71.21
69351;BME280;57106;51.446;-2.606;2023-02-01T17:47:44;102650.66;;;9.84;71.42
69351;BME280;57106;51.446;-2.606;2023-02-01T17:50:10;102654.15;;;9.82;71.80
69351;BME280;57106;51.446;-2.606;2023-02-01T17:52:34;102656.56;;;9.93;71.47
69351;BME280;57106;51.446;-2.606;2023-02-01T17:55:00;102650.70;;;10.03;71.14
69351;BME280;57106;51.446;-2.606;2023-02-01T17:57:29;102642.75;;;9.85;71.59
69351;BME280;57106;51.446;-2.606;2023-02-01T17:59:52;102652.74;;;9.83;71.43
69351;BME280;57106;51.446;-2.606;2023-02-01T18:02:19;102649.07;;;9.69;71.80
69351;BME280;57106;51.446;-2.606;2023-02-01T18:04:42;102649.36;;;9.68;71.73
69351;BME280;57106;51.446;-2.606;2023-02-01T18:07:10;102651.83;;;9.71;71.77
69351;BME280;57106;51.446;-2.606;2023-02-01T18:09:34;102655.32;;;9.52;72.36
69351;BME280;57106;51.446;-2.606;2023-02-01T18:12:02;102656.73;;;9.39;72.49
69351;BME280;57106;51.446;-2.606;2023-02-01T18:14:25;102659.99;;;9.42;72.43
69351;BME280;57106;51.446;-2.606;2023-02-01T18:16:52;102663.29;;;9.22;72.96
69351;BME280;57106;51.446;-2.606;2023-02-01T18:19:17;102671.68;;;9.49;72.34
69351;BME280;57106;51.446;-2.606;2023-02-01T18:21:43;102675.66;;;9.55;71.76
69351;BME280;57106;51.446;-2.606;2023-02-01T18:24:12;102671.28;;;9.60;71.77
69351;BME280;57106;51.446;-2.606;2023-02-01T18:26:41;102672.74;;;9.56;71.71
69351;BME280;57106;51.446;-2.606;2023-02-01T18:29:11;102681.03;;;9.63;71.71
69351;BME280;57106;51.446;-2.606;2023-02-01T18:31:46;102681.26;;;9.82;70.88
69351;BME280;57106;51.446;-2.606;2023-02-01T18:34:10;102682.34;;;9.85;70.46
69351;BME280;57106;51.446;-2.606;2023-02-01T18:36:42;102691.57;;;9.88;70.42
69351;BME280;57106;51.446;-2.606;2023-02-01T18:39:01;102696.68;;;9.94;70.17
69351;BME280;57106;51.446;-2.606;2023-02-01T18:46:19;102684.79;;;9.75;70.71
69351;BME280;57106;51.446;-2.606;2023-02-01T18:49:06;102683.67;;;9.91;70.50
69351;BME280;57106;51.446;-2.606;2023-02-01T18:56:06;102676.29;;;9.76;70.98
69351;BME280;57106;51.446;-2.606;2023-02-01T18:59:27;102676.78;;;9.96;70.49
69351;BME280;57106;51.446;-2.606;2023-02-01T19:01:04;102676.68;;;9.97;70.65
69351;BME280;57106;51.446;-2.606;2023-02-01T19:03:24;102672.39;;;9.96;70.65
69351;BME280;57106;51.446;-2.606;2023-02-01T19:05:44;102690.65;;;9.92;70.82
69351;BME280;57106;51.446;-2.606;2023-02-01T19:08:11;102692.79;;;9.76;71.33
69351;BME280;57106;51.446;-2.606;2023-02-01T19:10:33;102686.27;;;9.86;71.26
69351;BME280;57106;51.446;-2.606;2023-02-01T19:12:57;102687.10;;;9.71;71.76
69351;BME280;57106;51.446;-2.606;2023-02-01T19:15:29;102703.90;;;9.94;71.11
69351;BME280;57106;51.446;-2.606;2023-02-01T19:17:53;102700.77;;;9.84;71.46
69351;BME280;57106;51.446;-2.606;2023-02-01T19:20:30;102703.67;;;9.96;70.97
69351;BME280;57106;51.446;-2.606;2023-02-01T19:22:46;102703.95;;;10.05;70.56
69351;BME280;57106;51.446;-2.606;2023-02-01T19:25:31;102703.49;;;9.82;71.29
69351;BME280;57106;51.446;-2.606;2023-02-01T19:27:39;102700.01;;;9.99;71.11
69351;BME280;57106;51.446;-2.606;2023-02-01T19:30:13;102696.65;;;9.85;71.38
69351;BME280;57106;51.446;-2.606;2023-02-01T19:32:31;102693.98;;;9.94;71.25
69351;BME280;57106;51.446;-2.606;2023-02-01T19:34:53;102696.03;;;9.98;70.88
69351;BME280;57106;51.446;-2.606;2023-02-01T19:37:37;102694.36;;;9.81;71.65
69351;BME280;57106;51.446;-2.606;2023-02-01T19:39:53;102695.28;;;9.92;71.47
69351;BME280;57106;51.446;-2.606;2023-02-01T19:42:10;102690.97;;;9.77;71.82
69351;BME280;57106;51.446;-2.606;2023-02-01T19:44:42;102688.97;;;9.87;71.43
69351;BME280;57106;51.446;-2.606;2023-02-01T19:47:28;102688.81;;;9.70;72.23
69351;BME280;57106;51.446;-2.606;2023-02-01T19:49:35;102691.49;;;9.73;72.35
69351;BME280;57106;51.446;-2.606;2023-02-01T19:51:58;102692.57;;;9.95;71.50
69351;BME280;57106;51.446;-2.606;2023-02-01T19:54:22;102694.73;;;9.76;72.03
69351;BME280;57106;51.446;-2.606;2023-02-01T19:57:04;102690.84;;;9.88;71.74
69351;BME280;57106;51.446;-2.606;2023-02-01T19:59:17;102694.39;;;9.79;72.01
69351;BME280;57106;51.446;-2.606;2023-02-01T20:04:13;102694.86;;;9.88;71.31
69351;BME280;57106;51.446;-2.606;2023-02-01T20:06:40;102693.84;;;9.84;71.63
69351;BME280;57106;51.446;-2.606;2023-02-01T20:09:08;102697.33;;;9.71;72.09
69351;BME280;57106;51.446;-2.606;2023-02-01T20:11:32;102696.51;;;9.84;71.48
69351;BME280;57106;51.446;-2.606;2023-02-01T20:14:03;102696.47;;;9.59;72.35
69351;BME280;57106;51.446;-2.606;2023-02-01T20:16:19;102697.77;;;9.67;72.10
69351;BME280;57106;51.446;-2.606;2023-02-01T20:18:58;102700.35;;;9.75;72.05
69351;BME280;57106;51.446;-2.606;2023-02-01T20:21:18;102699.99;;;9.76;72.24